Thong Pha Phum, Thailand
Current Conditions -  °F | °C
As of 8:30 PM on Sunday 21 Dec 2014 (Local Time) from VTBD Reporting Station
Scattered Clouds Scattered Clouds  
Wind Chill: 81°   Ceiling: Unl
Heat Index: 82°   Visibility: 6mi
Dew Point: 64°   Wind: 7mph
Humidity: 58%   Direction: 70°ENE
Pressure: 29.88"   Gusts: NA
Location:  14.75°N, 98.63°E
Report Text: VTBD 211330Z 07006KT 9999 FEW025 SCT300 27/18 Q1012 NOSIG
Loading
Personal Weather Stations






























Interactive Weather Map New forecast layout! Learn more

10-Day Weather Forecast

Advertisements
Track Severe Weather on mobile